createdAt,value
2023-01-30T00:02:45.115Z,69.75
2023-01-30T00:07:47.912Z,70.05
2023-01-30T00:12:50.915Z,70.43
2023-01-30T00:17:52.939Z,70.46
2023-01-30T00:23:00.766Z,70.31
2023-01-30T00:28:03.528Z,70.79
2023-01-30T00:33:06.993Z,70.69
2023-01-30T00:38:10.497Z,70.69
2023-01-30T00:43:33.749Z,70.82
2023-01-30T00:48:35.858Z,70.82
2023-01-30T00:53:37.917Z,70.89
2023-01-30T00:58:39.908Z,70.62
2023-01-30T01:03:41.948Z,70.91
2023-01-30T01:08:44.161Z,70.82
2023-01-30T01:13:46.402Z,70.78
2023-01-30T01:18:48.815Z,70.67
2023-01-30T01:23:52.975Z,71.08
2023-01-30T01:28:56.515Z,71.16
2023-01-30T01:33:58.596Z,71.14
2023-01-30T01:39:01.664Z,71.28
2023-01-30T01:44:08.799Z,71.47
2023-01-30T01:49:37.172Z,71.51
2023-01-30T01:54:44.321Z,71.58
2023-01-30T01:59:57.967Z,71.61
2023-01-30T02:05:03.530Z,71.68
2023-01-30T02:10:10.728Z,71.92
2023-01-30T02:15:12.987Z,71.99
2023-01-30T02:20:19.675Z,72.00
2023-01-30T02:25:21.730Z,72.11
2023-01-30T02:30:43.224Z,72.19
2023-01-30T02:36:06.914Z,72.27
2023-01-30T02:41:28.456Z,72.49
2023-01-30T02:46:37.480Z,72.34
2023-01-30T02:51:41.118Z,72.76
2023-01-30T02:56:52.773Z,72.78
2023-01-30T03:02:14.314Z,73.07
2023-01-30T03:07:16.142Z,72.98
2023-01-30T03:12:26.857Z,73.18
2023-01-30T03:17:30.035Z,73.32
2023-01-30T03:22:32.267Z,73.25
2023-01-30T03:27:35.402Z,73.48
2023-01-30T03:32:37.627Z,73.53
2023-01-30T03:37:39.819Z,73.88
2023-01-30T03:42:42.863Z,73.91
2023-01-30T03:47:45.733Z,74.01
2023-01-30T03:52:47.804Z,74.20
2023-01-30T03:57:57.483Z,74.41
2023-01-30T04:03:02.694Z,74.49
2023-01-30T04:08:05.295Z,74.58
2023-01-30T04:13:07.525Z,74.92
2023-01-30T04:18:09.734Z,74.97
2023-01-30T04:23:24.996Z,75.14
2023-01-30T04:28:27.080Z,75.50
2023-01-30T04:33:29.761Z,75.50
2023-01-30T04:38:32.977Z,75.77
2023-01-30T04:43:35.971Z,75.94
2023-01-30T04:48:55.987Z,75.76
2023-01-30T04:53:58.115Z,76.07
2023-01-30T04:59:00.439Z,75.96
2023-01-30T05:04:08.127Z,76.17
2023-01-30T05:09:10.297Z,76.17
2023-01-30T05:14:12.304Z,76.10
2023-01-30T05:19:14.433Z,76.00
2023-01-30T05:24:16.667Z,76.01
2023-01-30T05:29:19.071Z,76.12
2023-01-30T05:34:21.133Z,75.94
2023-01-30T05:39:23.044Z,76.06
2023-01-30T05:44:25.136Z,75.85
2023-01-30T05:49:27.129Z,75.88
2023-01-30T05:54:29.358Z,75.97
2023-01-30T05:59:31.829Z,75.98
2023-01-30T06:04:34.484Z,75.89
2023-01-30T06:09:37.632Z,75.97
2023-01-30T06:14:40.741Z,75.94
2023-01-30T06:19:42.870Z,75.86
2023-01-30T06:24:46.127Z,77.25
2023-01-30T06:29:49.441Z,76.51
2023-01-30T06:34:53.168Z,76.44
2023-01-30T06:39:56.416Z,76.50
2023-01-30T06:45:00.501Z,76.70
2023-01-30T06:50:04.833Z,76.48
2023-01-30T06:55:08.614Z,76.86
2023-01-30T07:00:15.089Z,77.21
2023-01-30T07:05:18.661Z,77.52
2023-01-30T07:10:22.585Z,77.32
2023-01-30T07:15:25.111Z,77.50
2023-01-30T07:20:28.002Z,77.66
2023-01-30T07:25:31.542Z,77.60
2023-01-30T07:30:36.840Z,77.60
2023-01-30T07:35:39.557Z,77.62
2023-01-30T07:40:41.664Z,77.79
2023-01-30T07:45:48.463Z,77.74
2023-01-30T07:50:50.570Z,77.50
2023-01-30T08:02:14.824Z,77.85
2023-01-30T08:07:22.217Z,77.68
2023-01-30T08:12:27.962Z,77.79
2023-01-30T08:17:30.227Z,77.42
2023-01-30T08:22:32.508Z,77.58
2023-01-30T08:27:35.072Z,77.17
2023-01-30T08:32:37.205Z,76.79
2023-01-30T08:37:40.813Z,76.75
2023-01-30T08:42:45.871Z,76.03
2023-01-30T08:47:50.700Z,76.28
2023-01-30T08:52:58.790Z,75.72
2023-01-30T08:58:00.918Z,75.80
2023-01-30T09:03:03.736Z,75.60
2023-01-30T09:08:06.077Z,74.71
2023-01-30T09:13:09.975Z,74.85
2023-01-30T09:18:12.488Z,74.28
2023-01-30T09:23:14.896Z,73.53
2023-01-30T09:28:16.954Z,72.59
2023-01-30T09:33:20.767Z,70.51
2023-01-30T09:38:22.912Z,64.29
2023-01-30T09:43:49.792Z,59.75
2023-01-30T09:49:00.235Z,56.15
2023-01-30T09:54:22.445Z,54.40
2023-01-30T09:59:31.182Z,53.28
2023-01-30T10:04:41.942Z,51.03
2023-01-30T10:10:04.469Z,50.34
2023-01-30T10:15:15.347Z,50.78
2023-01-30T10:20:39.111Z,49.07
2023-01-30T10:25:43.334Z,49.14
2023-01-30T10:30:47.308Z,48.23
2023-01-30T10:36:18.770Z,46.18
2023-01-30T10:41:20.901Z,45.02
2023-01-30T10:46:52.412Z,44.64
2023-01-30T10:52:07.514Z,46.04
2023-01-30T10:57:37.321Z,45.53
2023-01-30T11:03:11.952Z,44.56
2023-01-30T11:08:26.291Z,44.80
2023-01-30T11:13:33.409Z,45.49
2023-01-30T11:24:33.648Z,53.57
2023-01-30T11:29:39.280Z,52.57
2023-01-30T11:34:42.801Z,55.08
2023-01-30T11:39:54.532Z,54.30
2023-01-30T11:45:10.807Z,57.51
2023-01-30T11:50:21.616Z,55.70
2023-01-30T11:55:27.774Z,56.16
2023-01-30T12:00:41.851Z,56.97
2023-01-30T12:05:46.038Z,57.43
2023-01-30T12:10:53.058Z,57.64
2023-01-30T12:16:21.794Z,55.08
2023-01-30T12:21:47.392Z,56.04
2023-01-30T12:27:08.750Z,55.56
2023-01-30T12:32:18.041Z,56.96
2023-01-30T12:38:01.461Z,55.71
2023-01-30T12:43:32.616Z,56.39
2023-01-30T12:49:12.230Z,55.80
2023-01-30T12:54:46.840Z,56.01
2023-01-30T13:00:07.668Z,55.88
2023-01-30T13:05:21.690Z,55.09
2023-01-30T13:10:52.570Z,55.76
2023-01-30T13:16:26.840Z,54.36
2023-01-30T13:21:40.680Z,55.63
2023-01-30T13:26:44.424Z,54.60
2023-01-30T13:31:56.601Z,52.34
2023-01-30T13:37:04.372Z,52.47
2023-01-30T13:42:13.201Z,50.80
2023-01-30T13:47:20.103Z,51.56
2023-01-30T13:53:21.041Z,50.35
2023-01-30T13:58:50.787Z,50.34
2023-01-30T14:03:53.123Z,49.73
2023-01-30T14:08:59.454Z,49.95
2023-01-30T14:14:20.886Z,50.57
2023-01-30T14:19:39.090Z,49.95
2023-01-30T14:24:41.822Z,48.78
2023-01-30T14:29:46.107Z,49.05
2023-01-30T14:35:10.980Z,49.59
2023-01-30T14:40:22.541Z,48.08
2023-01-30T14:45:52.638Z,49.44
2023-01-30T14:51:28.868Z,50.35
2023-01-30T14:56:54.648Z,49.16
2023-01-30T15:02:29.566Z,49.31
2023-01-30T15:07:45.108Z,48.32
2023-01-30T15:13:05.790Z,50.49
2023-01-30T15:18:29.185Z,48.36
2023-01-30T15:24:00.804Z,48.23
2023-01-30T15:29:09.203Z,47.63
2023-01-30T15:34:20.527Z,46.93
2023-01-30T15:39:24.975Z,46.83
2023-01-30T15:44:30.066Z,48.81
2023-01-30T15:49:43.063Z,49.39
2023-01-30T15:54:51.522Z,47.96
2023-01-30T15:59:54.739Z,50.33
2023-01-30T16:05:15.307Z,50.27
2023-01-30T16:10:23.823Z,49.72
2023-01-30T16:15:33.562Z,49.31
2023-01-30T16:21:01.509Z,52.06
2023-01-30T16:26:08.135Z,51.78
2023-01-30T16:31:11.192Z,51.36
2023-01-30T16:36:22.236Z,50.50
2023-01-30T16:42:00.264Z,51.30
2023-01-30T16:47:28.367Z,51.85
2023-01-30T16:52:41.414Z,52.33
2023-01-30T16:58:13.471Z,53.68
2023-01-30T17:03:26.948Z,54.13
2023-01-30T17:08:49.695Z,55.01
2023-01-30T17:14:10.684Z,55.33
2023-01-30T17:19:13.115Z,56.57
2023-01-30T17:24:20.365Z,57.24
2023-01-30T17:29:41.399Z,57.35
2023-01-30T17:34:45.493Z,57.45
2023-01-30T17:39:48.202Z,58.67
2023-01-30T17:44:50.246Z,59.35
2023-01-30T17:49:52.350Z,59.10
2023-01-30T17:54:54.415Z,59.45
2023-01-30T17:59:56.670Z,59.11
2023-01-30T18:04:59.078Z,58.96
2023-01-30T18:10:01.253Z,59.54
2023-01-30T18:15:04.347Z,60.05
2023-01-30T18:20:06.969Z,60.76
2023-01-30T18:25:09.117Z,61.07
2023-01-30T18:30:15.117Z,60.88
2023-01-30T18:35:18.811Z,60.95
2023-01-30T18:40:22.372Z,62.21
2023-01-30T18:45:25.322Z,61.19
2023-01-30T18:50:27.560Z,62.08
2023-01-30T18:55:29.731Z,63.24
2023-01-30T19:00:32.046Z,63.46
2023-01-30T19:05:36.767Z,63.66
2023-01-30T19:10:39.236Z,62.80
2023-01-30T19:15:41.365Z,63.26
2023-01-30T19:20:43.575Z,64.49
2023-01-30T19:25:53.438Z,64.18
2023-01-30T19:30:56.417Z,63.83
2023-01-30T19:36:11.168Z,63.62
2023-01-30T19:41:15.714Z,62.83
2023-01-30T19:46:18.200Z,63.22
2023-01-30T19:51:22.976Z,63.21
2023-01-30T19:56:26.227Z,63.15
2023-01-30T20:01:31.448Z,62.93
2023-01-30T20:06:37.814Z,63.50
2023-01-30T20:11:41.957Z,63.71
2023-01-30T20:16:44.238Z,63.82
2023-01-30T20:21:46.581Z,65.01
2023-01-30T20:26:49.055Z,65.31
2023-01-30T20:31:54.408Z,65.95
2023-01-30T20:36:56.752Z,65.74
2023-01-30T20:41:58.921Z,65.98
2023-01-30T20:47:01.312Z,65.86
2023-01-30T20:52:04.127Z,65.62
2023-01-30T20:57:08.102Z,66.16
2023-01-30T21:02:10.480Z,65.60
2023-01-30T21:07:12.581Z,65.36
2023-01-30T21:12:14.725Z,65.92
2023-01-30T21:17:17.100Z,66.18
2023-01-30T21:22:19.346Z,66.63
2023-01-30T21:27:21.400Z,67.01
2023-01-30T21:32:23.595Z,67.06
2023-01-30T21:37:44.521Z,67.20
2023-01-30T21:43:05.393Z,67.68
2023-01-30T21:48:07.829Z,67.67
2023-01-30T21:53:10.088Z,67.83
2023-01-30T21:58:12.226Z,67.91
2023-01-30T22:03:15.015Z,68.16
2023-01-30T22:08:17.224Z,68.16
2023-01-30T22:13:19.296Z,68.56
2023-01-30T22:18:21.574Z,68.94
2023-01-30T22:23:23.620Z,69.07
2023-01-30T22:28:27.636Z,69.57
2023-01-30T22:33:30.460Z,70.23
2023-01-30T22:38:33.043Z,70.36
2023-01-30T22:43:36.287Z,70.77
2023-01-30T22:48:39.423Z,70.87
2023-01-30T22:53:44.032Z,71.19
2023-01-30T22:58:47.238Z,71.27
2023-01-30T23:03:54.354Z,71.47
2023-01-30T23:08:56.446Z,71.45
2023-01-30T23:14:09.701Z,71.67
2023-01-30T23:19:13.375Z,71.89
2023-01-30T23:24:21.014Z,72.26
2023-01-30T23:29:23.012Z,72.18
2023-01-30T23:34:26.519Z,72.35
2023-01-30T23:39:28.989Z,72.81
2023-01-30T23:44:30.995Z,73.59
2023-01-30T23:49:33.169Z,73.12
2023-01-30T23:54:35.368Z,73.55
2023-01-30T23:59:37.443Z,73.54
